createdAt,value
2018-01-19T00:00:58.416Z,9.98
2018-01-19T00:02:08.204Z,9.85
2018-01-19T00:03:17.991Z,9.81
2018-01-19T00:04:28.049Z,9.77
2018-01-19T00:05:38.110Z,9.89
2018-01-19T00:06:48.164Z,9.82
2018-01-19T00:07:58.215Z,9.85
2018-01-19T00:09:08.021Z,9.82
2018-01-19T00:10:18.083Z,9.75
2018-01-19T00:11:28.140Z,9.88
2018-01-19T00:12:37.925Z,9.88
2018-01-19T00:13:47.702Z,9.89
2018-01-19T00:14:57.762Z,9.89
2018-01-19T00:16:07.890Z,9.84
2018-01-19T00:17:17.967Z,9.89
2018-01-19T00:18:28.805Z,9.88
2018-01-19T00:19:38.844Z,9.85
2018-01-19T00:20:48.639Z,9.85
2018-01-19T00:21:58.697Z,9.85
2018-01-19T00:23:08.750Z,9.81
2018-01-19T00:24:19.097Z,9.88
2018-01-19T00:25:29.196Z,9.89
2018-01-19T00:26:39.247Z,9.88
2018-01-19T00:27:49.304Z,9.88
2018-01-19T00:28:59.346Z,9.81
2018-01-19T00:30:09.544Z,9.84
2018-01-19T00:31:19.597Z,9.85
2018-01-19T00:32:29.177Z,9.82
2018-01-19T00:33:39.202Z,9.82
2018-01-19T00:34:49.864Z,9.78
2018-01-19T00:35:59.501Z,9.74
2018-01-19T00:37:09.550Z,9.72
2018-01-19T00:38:19.645Z,9.71
2018-01-19T00:39:29.696Z,9.62
2018-01-19T00:40:39.480Z,9.66
2018-01-19T00:41:49.510Z,9.64
2018-01-19T00:42:59.564Z,9.63
2018-01-19T00:44:09.620Z,9.64
2018-01-19T00:45:19.395Z,9.6
2018-01-19T00:46:29.189Z,9.56
2018-01-19T00:47:38.970Z,9.57
2018-01-19T00:48:49.022Z,9.55
2018-01-19T00:49:59.085Z,9.62
2018-01-19T00:51:08.878Z,9.55
2018-01-19T00:52:18.660Z,9.55
2018-01-19T00:53:28.719Z,9.56
2018-01-19T00:54:38.774Z,9.6
2018-01-19T00:55:48.815Z,9.59
2018-01-19T00:56:58.392Z,9.56
2018-01-19T00:58:08.445Z,9.57
2018-01-19T00:59:18.500Z,9.5
2018-01-19T01:00:28.547Z,9.5
2018-01-19T01:01:38.644Z,9.52
2018-01-19T01:02:48.435Z,9.48
2018-01-19T01:03:58.483Z,9.5
2018-01-19T01:05:08.280Z,9.48
2018-01-19T01:06:18.052Z,9.42
2018-01-19T01:07:27.888Z,9.48
2018-01-19T01:08:37.679Z,9.52
2018-01-19T01:09:47.481Z,9.44
2018-01-19T01:10:57.269Z,9.5
2018-01-19T01:12:07.364Z,9.47
2018-01-19T01:13:17.478Z,9.45
2018-01-19T01:14:27.515Z,9.42
2018-01-19T01:15:37.575Z,9.3
2018-01-19T01:16:47.642Z,9.29
2018-01-19T01:17:57.205Z,9.41
2018-01-19T01:19:06.746Z,9.41
2018-01-19T01:20:16.575Z,9.24
2018-01-19T01:21:26.643Z,9.27
2018-01-19T01:22:36.700Z,9.23
2018-01-19T01:23:46.748Z,9.29
2018-01-19T01:24:56.850Z,9.19
2018-01-19T01:26:06.631Z,9.19
2018-01-19T01:27:16.665Z,9.23
2018-01-19T01:28:26.722Z,9.21
2018-01-19T01:29:36.797Z,9.26
2018-01-19T01:30:46.841Z,9.14
2018-01-19T01:31:56.616Z,9.14
2018-01-19T01:33:05.884Z,9.12
2018-01-19T01:34:15.928Z,9.14
2018-01-19T01:35:25.457Z,9.19
2018-01-19T01:36:35.571Z,9.12
2018-01-19T01:37:45.610Z,9.19
2018-01-19T01:38:55.664Z,9.14
2018-01-19T01:40:05.713Z,9.16
2018-01-19T01:41:15.493Z,9.16
2018-01-19T01:42:25.029Z,9.04
2018-01-19T01:43:35.083Z,9.2
2018-01-19T01:44:45.113Z,9.11
2018-01-19T01:45:55.176Z,9.08
2018-01-19T01:47:04.704Z,9.14
2018-01-19T01:48:14.749Z,9.17
2018-01-19T01:49:24.827Z,9.16
2018-01-19T01:50:34.862Z,9.16
2018-01-19T01:51:44.852Z,9.09
2018-01-19T01:52:54.703Z,9.12
2018-01-19T01:54:04.750Z,9.16
2018-01-19T01:55:14.801Z,9.17
2018-01-19T01:56:24.848Z,9.03
2018-01-19T01:57:34.893Z,9.09
2018-01-19T01:58:44.936Z,9.14
2018-01-19T01:59:54.708Z,8.98
2018-01-19T02:01:04.755Z,9.12
2018-01-19T02:02:14.545Z,9.05
2018-01-19T02:03:25.600Z,8.98
2018-01-19T02:04:35.639Z,8.94
2018-01-19T02:05:45.824Z,8.92
2018-01-19T02:06:55.371Z,9.03
2018-01-19T02:08:05.423Z,8.9
2018-01-19T02:09:15.456Z,8.9
2018-01-19T02:10:25.488Z,9
2018-01-19T02:11:35.534Z,9.04
2018-01-19T02:12:45.577Z,8.92
2018-01-19T02:13:55.630Z,9.03
2018-01-19T02:15:05.675Z,9.04
2018-01-19T02:16:15.722Z,8.89
2018-01-19T02:17:26.179Z,8.94
2018-01-19T02:18:35.971Z,8.94
2018-01-19T02:19:46.021Z,8.98
2018-01-19T02:20:55.804Z,8.9
2018-01-19T02:22:05.851Z,8.94
2018-01-19T02:23:15.439Z,8.87
2018-01-19T02:24:25.494Z,8.89
2018-01-19T02:25:35.547Z,8.9
2018-01-19T02:26:45.333Z,8.8
2018-01-19T02:27:55.427Z,8.8
2018-01-19T02:29:05.467Z,8.76
2018-01-19T02:30:15.516Z,8.72
2018-01-19T02:31:25.565Z,8.9
2018-01-19T02:32:35.614Z,8.79
2018-01-19T02:33:45.655Z,8.83
2018-01-19T02:34:55.457Z,8.87
2018-01-19T02:36:05.518Z,8.87
2018-01-19T02:37:15.568Z,8.79
2018-01-19T02:38:24.558Z,8.76
2018-01-19T02:39:34.611Z,8.9
2018-01-19T02:40:44.650Z,8.89
2018-01-19T02:41:54.451Z,8.89
2018-01-19T02:43:04.259Z,8.82
2018-01-19T02:44:14.299Z,8.82
2018-01-19T02:45:24.087Z,8.89
2018-01-19T02:46:34.138Z,8.95
2018-01-19T02:47:43.414Z,8.95
2018-01-19T02:48:53.471Z,9.04
2018-01-19T02:50:03.534Z,9
2018-01-19T02:51:13.577Z,9.04
2018-01-19T02:52:23.676Z,9.03
2018-01-19T02:53:33.478Z,9.05
2018-01-19T02:54:43.516Z,9.09
2018-01-19T02:55:53.047Z,9.05
2018-01-19T02:57:03.090Z,8.97
2018-01-19T02:58:13.187Z,9.01
2018-01-19T02:59:23.236Z,8.87
2018-01-19T03:00:32.764Z,8.94
2018-01-19T03:01:42.611Z,8.92
2018-01-19T03:02:52.662Z,8.9
2018-01-19T03:34:13.796Z,6.42
2018-01-19T03:35:23.848Z,6.33
2018-01-19T03:36:33.655Z,6.31
2018-01-19T03:37:43.697Z,6.42
2018-01-19T03:38:53.471Z,6.43
2018-01-19T03:40:03.553Z,6.58
2018-01-19T03:41:13.615Z,6.67
2018-01-19T03:42:23.668Z,6.94
2018-01-19T03:43:33.693Z,7.04
2018-01-19T03:44:43.735Z,7.11
2018-01-19T03:45:53.835Z,7.19
2018-01-19T03:47:03.893Z,7.33
2018-01-19T03:48:13.946Z,7.52
2018-01-19T03:49:23.987Z,7.63
2018-01-19T03:50:34.044Z,7.78
2018-01-19T03:51:43.887Z,7.89
2018-01-19T03:52:53.928Z,7.92
2018-01-19T03:54:03.980Z,7.98
2018-01-19T03:55:14.026Z,8.14
2018-01-19T03:56:23.820Z,8.16
2018-01-19T03:57:33.913Z,8.24
2018-01-19T03:58:43.961Z,8.34
2018-01-19T03:59:53.474Z,8.42
2018-01-19T04:01:03.525Z,8.44
2018-01-19T04:02:13.571Z,8.46
2018-01-19T04:03:23.406Z,8.46
2018-01-19T04:04:33.186Z,8.61
2018-01-19T04:05:42.976Z,8.6
2018-01-19T04:06:53.016Z,8.57
2018-01-19T04:08:02.550Z,8.6
2018-01-19T04:09:12.597Z,8.61
2018-01-19T04:10:22.787Z,8.72
2018-01-19T04:11:33.338Z,8.76
2018-01-19T04:12:43.140Z,8.74
2018-01-19T04:13:53.183Z,8.69
2018-01-19T04:15:03.026Z,8.79
2018-01-19T04:16:13.067Z,8.83
2018-01-19T04:17:22.841Z,8.82
2018-01-19T04:18:32.881Z,8.8
2018-01-19T04:19:42.915Z,8.77
2018-01-19T04:20:52.966Z,8.85
2018-01-19T04:22:03.017Z,8.8
2018-01-19T04:23:12.819Z,8.8
2018-01-19T04:24:22.865Z,8.94
2018-01-19T04:25:32.677Z,8.95
2018-01-19T04:26:42.797Z,9.04
2018-01-19T04:27:52.866Z,9.12
2018-01-19T04:29:02.899Z,9.08
2018-01-19T04:30:12.945Z,9.11
2018-01-19T04:31:22.730Z,9.17
2018-01-19T04:32:32.867Z,9.19
2018-01-19T04:33:42.660Z,9.08
2018-01-19T04:34:52.708Z,9.04
2018-01-19T04:36:02.759Z,9.05
2018-01-19T04:37:12.546Z,9.09
2018-01-19T04:38:22.077Z,9.04
2018-01-19T04:39:32.117Z,9.01
2018-01-19T04:40:42.167Z,9.12
2018-01-19T04:41:52.227Z,9.01
2018-01-19T04:43:02.272Z,9.12
2018-01-19T04:44:12.360Z,9.04
2018-01-19T04:45:22.421Z,9.01
2018-01-19T04:46:32.475Z,9.04
2018-01-19T04:47:42.584Z,8.92
2018-01-19T04:48:52.635Z,9.05
2018-01-19T04:50:02.723Z,9.01
2018-01-19T04:51:12.776Z,8.9
2018-01-19T04:52:22.564Z,8.94
2018-01-19T04:53:33.759Z,9.01
2018-01-19T04:54:43.791Z,9.03
2018-01-19T04:55:53.889Z,9.03
2018-01-19T04:57:03.928Z,9.11
2018-01-19T04:58:13.471Z,9.05
2018-01-19T04:59:23.497Z,9.11
2018-01-19T05:00:33.535Z,9.05
2018-01-19T05:01:43.597Z,9.01
2018-01-19T05:02:53.648Z,8.97
2018-01-19T05:04:03.686Z,8.95
2018-01-19T05:05:13.748Z,9
2018-01-19T05:06:23.800Z,8.94
2018-01-19T05:07:33.901Z,8.98
2018-01-19T05:08:43.682Z,8.95
2018-01-19T05:09:53.738Z,8.98
2018-01-19T05:11:03.835Z,8.98
2018-01-19T05:12:13.613Z,9.01
2018-01-19T05:13:23.673Z,9.01
2018-01-19T05:14:33.734Z,9
2018-01-19T05:15:43.773Z,9.08
2018-01-19T05:16:53.568Z,9.12
2018-01-19T05:18:03.091Z,9.08
2018-01-19T05:19:13.141Z,9
2018-01-19T05:20:22.924Z,9
2018-01-19T05:21:32.980Z,9.09
2018-01-19T05:22:42.771Z,9.14
2018-01-19T05:23:52.829Z,9.05
2018-01-19T05:25:02.926Z,9.14
2018-01-19T05:26:12.980Z,9.14
2018-01-19T05:27:23.046Z,9.08
2018-01-19T05:28:32.832Z,9.12
2018-01-19T05:29:42.932Z,9.11
2018-01-19T05:30:53.010Z,9.05
2018-01-19T05:32:03.053Z,9.16
2018-01-19T05:33:13.100Z,9.12
2018-01-19T05:34:23.137Z,9.11
2018-01-19T05:35:32.914Z,9.09
2018-01-19T05:36:42.709Z,9.16
2018-01-19T05:37:52.749Z,9.12
2018-01-19T05:39:02.794Z,9.12
2018-01-19T05:40:12.823Z,9.04
2018-01-19T05:41:22.885Z,9.16
2018-01-19T05:42:32.982Z,9.11
2018-01-19T05:43:43.031Z,9.09
2018-01-19T05:44:53.080Z,9.16
2018-01-19T05:46:03.138Z,9.17
2018-01-19T05:47:13.191Z,9.12
2018-01-19T05:48:23.236Z,9.16
2018-01-19T05:49:33.032Z,9.2
2018-01-19T05:50:43.087Z,9.14
2018-01-19T05:51:53.144Z,9.05
2018-01-19T05:53:03.193Z,9.05
2018-01-19T05:54:13.257Z,9.17
2018-01-19T05:55:23.306Z,9.08
2018-01-19T05:56:33.346Z,9.14
2018-01-19T05:57:43.144Z,9.05
2018-01-19T05:58:52.996Z,9.05
2018-01-19T06:00:03.040Z,9.08
2018-01-19T06:01:13.096Z,9.16
2018-01-19T06:02:23.157Z,9.08
2018-01-19T06:03:33.229Z,9.05
2018-01-19T06:04:43.272Z,9.04
2018-01-19T06:05:53.389Z,8.97
2018-01-19T06:07:03.449Z,8.92
2018-01-19T06:08:13.238Z,8.9
2018-01-19T06:09:23.288Z,9.03
2018-01-19T06:10:33.344Z,9.05
2018-01-19T06:11:43.415Z,9.01
2018-01-19T06:12:53.473Z,8.95
2018-01-19T06:14:03.520Z,8.95
2018-01-19T06:15:13.563Z,9.05
2018-01-19T06:16:23.615Z,9.03
2018-01-19T06:17:33.904Z,8.97
2018-01-19T06:18:43.945Z,8.92
2018-01-19T06:19:53.982Z,8.9
2018-01-19T06:21:04.050Z,8.89
2018-01-19T06:22:14.103Z,8.94
2018-01-19T06:23:23.988Z,8.79
2018-01-19T06:24:33.773Z,8.86
2018-01-19T06:25:43.808Z,8.82
2018-01-19T06:26:53.609Z,8.83
2018-01-19T06:28:03.671Z,8.8
2018-01-19T06:29:13.729Z,8.83
2018-01-19T06:30:23.776Z,8.71
2018-01-19T06:31:33.812Z,8.69
2018-01-19T06:32:43.848Z,8.67
2018-01-19T06:33:53.900Z,8.72
2018-01-19T06:35:03.997Z,8.65
2018-01-19T06:36:14.058Z,8.71
2018-01-19T06:37:24.114Z,8.58
2018-01-19T06:38:34.141Z,8.58
2018-01-19T06:39:43.663Z,8.58
2018-01-19T06:40:53.775Z,8.6
2018-01-19T06:42:03.822Z,8.58
2018-01-19T06:43:13.864Z,8.53
2018-01-19T06:44:23.644Z,8.6
2018-01-19T06:45:33.692Z,8.5
2018-01-19T06:46:43.488Z,8.46
2018-01-19T06:47:53.261Z,8.43
2018-01-19T06:49:03.298Z,8.49
2018-01-19T06:50:13.105Z,8.46
2018-01-19T06:51:22.658Z,8.5
2018-01-19T06:52:32.711Z,8.4
2018-01-19T06:53:42.760Z,8.49
2018-01-19T06:54:52.545Z,8.35
2018-01-19T06:56:02.589Z,8.35
2018-01-19T06:57:12.380Z,8.31
2018-01-19T06:58:22.444Z,8.34
2018-01-19T06:59:32.484Z,8.31
2018-01-19T07:00:42.260Z,8.19
2018-01-19T07:01:52.319Z,8.24
2018-01-19T07:03:02.243Z,8.31
2018-01-19T07:04:12.292Z,8.24
2018-01-19T07:05:22.344Z,8.34
2018-01-19T07:06:32.378Z,8.32
2018-01-19T07:07:42.433Z,8.25
2018-01-19T07:08:52.219Z,8.25
2018-01-19T07:10:02.060Z,8.29
2018-01-19T07:11:12.107Z,8.31
2018-01-19T07:12:21.893Z,8.28
2018-01-19T07:13:31.941Z,8.31
2018-01-19T07:14:41.989Z,8.35
2018-01-19T07:15:52.234Z,8.26
2018-01-19T07:17:02.288Z,8.32
2018-01-19T07:18:12.330Z,8.28
2018-01-19T07:19:22.139Z,8.34
2018-01-19T07:20:31.931Z,8.29
2018-01-19T07:21:41.794Z,8.35
2018-01-19T07:22:51.842Z,8.35
2018-01-19T07:24:01.898Z,8.39
2018-01-19T07:25:11.953Z,8.42
2018-01-19T07:26:21.724Z,8.34
2018-01-19T07:27:31.767Z,8.31
2018-01-19T07:28:41.552Z,8.32
2018-01-19T07:29:50.818Z,8.35
2018-01-19T07:31:00.864Z,8.36
2018-01-19T07:32:10.958Z,8.32
2018-01-19T07:33:21.011Z,8.34
2018-01-19T07:34:31.102Z,8.28
2018-01-19T07:35:40.946Z,8.34
2018-01-19T07:36:51.001Z,8.31
2018-01-19T07:38:00.785Z,8.22
2018-01-19T07:39:10.577Z,8.16
2018-01-19T07:40:20.626Z,8.26
2018-01-19T07:41:30.666Z,8.28
2018-01-19T07:42:40.738Z,8.24
2018-01-19T07:43:50.781Z,8.22
2018-01-19T07:45:00.829Z,8.19
2018-01-19T07:46:10.873Z,8.14
2018-01-19T07:47:20.420Z,8.16
2018-01-19T07:48:29.958Z,8.14
2018-01-19T07:49:40.006Z,8.24
2018-01-19T07:50:50.061Z,8.14
2018-01-19T07:52:00.146Z,8.1
2018-01-19T07:53:09.930Z,8.1
2018-01-19T07:54:19.707Z,8.04
2018-01-19T07:55:29.756Z,8.01
2018-01-19T07:56:39.790Z,8.03
2018-01-19T07:57:49.833Z,7.98
2018-01-19T07:58:59.623Z,8.01
2018-01-19T08:00:09.410Z,8.06
2018-01-19T08:01:19.462Z,8.01
2018-01-19T08:02:29.518Z,7.93
2018-01-19T08:03:39.595Z,7.98
2018-01-19T08:04:49.632Z,7.89
2018-01-19T08:05:59.675Z,7.89
2018-01-19T08:07:09.710Z,7.85
2018-01-19T08:08:19.756Z,7.78
2018-01-19T08:09:29.853Z,7.8
2018-01-19T08:10:39.686Z,7.77
2018-01-19T08:11:49.473Z,7.85
2018-01-19T08:12:59.247Z,7.71
2018-01-19T08:14:09.301Z,7.68
2018-01-19T08:15:19.411Z,7.77
2018-01-19T08:16:29.461Z,7.64
2018-01-19T08:17:39.556Z,7.61
2018-01-19T08:18:49.363Z,7.59
2018-01-19T08:19:59.412Z,7.54
2018-01-19T08:21:09.484Z,7.56
2018-01-19T08:22:19.528Z,7.44
2018-01-19T08:23:29.312Z,7.52
2018-01-19T08:24:39.342Z,7.52
2018-01-19T08:25:49.128Z,7.51
2018-01-19T08:26:59.166Z,7.41
2018-01-19T08:28:08.954Z,7.37
2018-01-19T08:29:18.799Z,7.45
2018-01-19T08:30:28.855Z,7.48
2018-01-19T08:31:38.915Z,7.44
2018-01-19T08:32:48.747Z,7.48
2018-01-19T08:33:58.828Z,7.48
2018-01-19T08:35:08.864Z,7.47
2018-01-19T08:36:18.916Z,7.68
2018-01-19T08:37:28.971Z,7.63
2018-01-19T08:38:38.882Z,7.63
2018-01-19T08:39:48.943Z,7.73
2018-01-19T08:40:59.002Z,7.75
2018-01-19T08:42:09.049Z,7.77
2018-01-19T08:43:19.098Z,7.92
2018-01-19T08:44:29.212Z,7.91
2018-01-19T08:45:39.260Z,8.01
2018-01-19T08:46:49.300Z,7.89
2018-01-19T08:47:59.087Z,7.95
2018-01-19T08:49:08.977Z,7.93
2018-01-19T08:50:19.034Z,7.92
2018-01-19T08:51:29.088Z,7.86
2018-01-19T08:52:38.865Z,7.78
2018-01-19T08:53:48.663Z,7.82
2018-01-19T08:54:58.718Z,7.77
2018-01-19T08:56:08.666Z,7.74
2018-01-19T08:57:18.499Z,7.73
2018-01-19T08:58:28.532Z,7.7
2018-01-19T08:59:38.070Z,7.7
2018-01-19T09:00:47.851Z,7.75
2018-01-19T09:01:57.923Z,7.83
2018-01-19T09:03:08.050Z,7.75
2018-01-19T09:04:18.085Z,7.88
2018-01-19T09:05:28.120Z,7.92
2018-01-19T09:06:38.178Z,8.11
2018-01-19T09:07:48.285Z,8.14
2018-01-19T09:08:58.388Z,8.14
2018-01-19T09:10:08.460Z,8.19
2018-01-19T09:11:19.553Z,8.28
2018-01-19T09:12:29.598Z,8.35
2018-01-19T09:13:39.706Z,8.43
2018-01-19T09:14:50.061Z,8.47
2018-01-19T09:15:59.864Z,8.5
2018-01-19T09:17:09.933Z,8.61
2018-01-19T09:18:19.978Z,8.69
2018-01-19T09:19:29.774Z,8.76
2018-01-19T09:20:39.832Z,8.86
2018-01-19T09:21:49.891Z,8.95
2018-01-19T09:23:00.945Z,9.03
2018-01-19T09:24:11.002Z,9.04
2018-01-19T09:25:20.791Z,9.05
2018-01-19T09:26:30.919Z,9.21
2018-01-19T09:27:40.850Z,9.23
2018-01-19T09:28:50.635Z,9.27
2018-01-19T09:30:00.497Z,9.27
2018-01-19T09:31:10.341Z,9.26
2018-01-19T09:32:20.394Z,9.3
2018-01-19T09:33:30.481Z,9.37
2018-01-19T09:34:40.259Z,9.21
2018-01-19T09:35:50.524Z,9.27
2018-01-19T09:37:00.570Z,9.26
2018-01-19T09:38:10.622Z,9.34
2018-01-19T09:39:20.409Z,9.5
2018-01-19T09:40:30.449Z,9.63
2018-01-19T09:41:40.507Z,9.78
2018-01-19T09:42:50.344Z,9.93
2018-01-19T09:44:00.396Z,9.96
2018-01-19T09:45:09.931Z,10.1
2018-01-19T09:46:19.987Z,10.28
2018-01-19T09:47:30.065Z,10.36
2018-01-19T09:48:39.866Z,10.38
2018-01-19T09:49:49.925Z,10.46
2018-01-19T09:50:59.722Z,10.49
2018-01-19T09:52:09.260Z,10.7
2018-01-19T09:53:19.310Z,10.72
2018-01-19T09:54:29.394Z,10.8
2018-01-19T09:55:39.453Z,10.8
2018-01-19T09:56:49.248Z,10.83
2018-01-19T09:57:59.312Z,10.91
2018-01-19T09:59:09.113Z,10.88
2018-01-19T10:00:18.750Z,10.95
2018-01-19T10:01:28.550Z,11.05
2018-01-19T10:02:38.654Z,11.08
2018-01-19T10:03:48.440Z,10.98
2018-01-19T10:04:58.497Z,11.03
2018-01-19T10:06:08.293Z,11.05
2018-01-19T10:07:18.088Z,11.03
2018-01-19T10:08:28.132Z,11.12
2018-01-19T10:09:37.935Z,11.16
2018-01-19T10:10:47.982Z,11.26
2018-01-19T10:11:58.024Z,11.21
2018-01-19T10:13:08.158Z,11.33
2018-01-19T10:14:18.215Z,11.39
2018-01-19T10:15:28.269Z,11.35
2018-01-19T10:16:38.326Z,11.49
2018-01-19T10:17:48.426Z,11.51
2018-01-19T10:18:58.596Z,11.56
2018-01-19T10:20:08.116Z,11.52
2018-01-19T10:21:17.653Z,11.61
2018-01-19T10:22:27.712Z,11.63
2018-01-19T10:23:37.785Z,11.68
2018-01-19T10:24:47.697Z,11.81
2018-01-19T10:25:57.494Z,11.84
2018-01-19T10:27:07.313Z,11.98
2018-01-19T10:28:17.390Z,12.23
2018-01-19T10:29:27.471Z,12.37
2018-01-19T10:30:37.536Z,12.52
2018-01-19T10:31:47.584Z,12.78
2018-01-19T10:32:57.656Z,12.86
2018-01-19T10:34:07.486Z,12.94
2018-01-19T10:35:17.532Z,12.91
2018-01-19T10:36:28.206Z,12.94
2018-01-19T10:37:38.266Z,12.88
2018-01-19T10:38:48.109Z,12.77
2018-01-19T10:39:58.165Z,12.89
2018-01-19T10:41:08.233Z,13.02
2018-01-19T10:42:18.294Z,13.11
2018-01-19T10:43:28.083Z,13.31
2018-01-19T10:44:38.152Z,13.53
2018-01-19T10:45:47.973Z,13.65
2018-01-19T10:46:58.015Z,13.58
2018-01-19T10:48:08.078Z,13.54
2018-01-19T10:49:17.899Z,13.5
2018-01-19T10:50:27.986Z,13.4
2018-01-19T10:51:38.049Z,13.4
2018-01-19T10:52:48.096Z,13.37
2018-01-19T10:53:58.135Z,13.39
2018-01-19T10:55:08.184Z,13.24
2018-01-19T10:56:18.036Z,13.29
2018-01-19T10:57:28.244Z,13.39
2018-01-19T10:58:38.303Z,13.6
2018-01-19T10:59:48.392Z,13.7
2018-01-19T11:00:58.453Z,13.63
2018-01-19T11:02:08.345Z,13.62
2018-01-19T11:03:18.431Z,13.66
2018-01-19T11:04:28.246Z,13.84
2018-01-19T11:05:38.414Z,13.88
2018-01-19T11:06:49.317Z,13.91
2018-01-19T11:07:59.368Z,13.95
2018-01-19T11:09:09.161Z,13.93
2018-01-19T11:10:19.271Z,13.87
2018-01-19T11:11:29.338Z,13.88
2018-01-19T11:12:39.390Z,13.86
2018-01-19T11:13:49.449Z,14.01
2018-01-19T11:14:59.509Z,13.97
2018-01-19T11:16:09.355Z,13.88
2018-01-19T11:17:19.171Z,13.83
2018-01-19T11:18:29.217Z,13.87
2018-01-19T11:19:39.270Z,13.69
2018-01-19T11:20:49.323Z,13.72
2018-01-19T11:21:59.374Z,13.79
2018-01-19T11:23:09.176Z,13.83
2018-01-19T11:24:19.227Z,13.81
2018-01-19T11:25:29.284Z,13.76
2018-01-19T11:26:39.338Z,13.81
2018-01-19T11:27:49.168Z,13.81
2018-01-19T11:28:58.990Z,13.54
2018-01-19T11:30:09.071Z,13.65
2018-01-19T11:31:19.122Z,13.63
2018-01-19T11:32:28.917Z,13.65
2018-01-19T11:33:39.016Z,13.35
2018-01-19T11:34:49.064Z,13.02
2018-01-19T11:35:59.123Z,13.24
2018-01-19T11:37:09.197Z,13.35
2018-01-19T11:38:19.265Z,13.55
2018-01-19T11:39:29.109Z,13.37
2018-01-19T11:40:39.167Z,13.48
2018-01-19T11:41:49.240Z,13.44
2018-01-19T11:42:59.367Z,13.5
2018-01-19T11:44:09.201Z,13.48
2018-01-19T11:45:19.305Z,13.37
2018-01-19T11:46:29.369Z,13.39
2018-01-19T11:47:42.122Z,13.32
2018-01-19T11:48:53.881Z,13.37
2018-01-19T11:50:03.929Z,13.29
2018-01-19T11:51:14.115Z,13.37
2018-01-19T11:52:23.990Z,13.4
2018-01-19T11:53:34.122Z,13.31
2018-01-19T11:54:44.178Z,13.39
2018-01-19T11:55:54.327Z,13.39
2018-01-19T11:57:04.468Z,13.39
2018-01-19T11:58:14.534Z,13.35
2018-01-19T11:59:24.592Z,13.29
2018-01-19T12:00:34.485Z,13.27
2018-01-19T12:01:44.554Z,13.17
2018-01-19T12:02:54.358Z,13.14
2018-01-19T12:04:04.150Z,13.2
2018-01-19T12:05:14.214Z,12.98
2018-01-19T12:06:24.287Z,13.06
2018-01-19T12:07:34.127Z,13.06
2018-01-19T12:08:43.746Z,13.03
2018-01-19T12:09:53.806Z,13.13
2018-01-19T12:11:03.849Z,13.17
2018-01-19T12:12:13.645Z,13.11
2018-01-19T12:13:23.696Z,13.17
2018-01-19T12:14:33.806Z,13.13
2018-01-19T12:15:43.850Z,13.1
2018-01-19T12:16:53.922Z,13.02
2018-01-19T12:18:03.970Z,13.11
2018-01-19T12:19:13.511Z,13.2
2018-01-19T12:20:23.581Z,13.19
2018-01-19T12:21:33.370Z,13.32
2018-01-19T12:22:43.521Z,13.39
2018-01-19T12:23:53.585Z,13.36
2018-01-19T12:25:03.649Z,13.36
2018-01-19T12:26:13.713Z,13.48
2018-01-19T12:27:23.503Z,13.37
2018-01-19T12:28:33.613Z,13.35
2018-01-19T12:29:43.704Z,13.36
2018-01-19T12:30:53.780Z,13.5
2018-01-19T12:32:03.586Z,13.47
2018-01-19T12:33:13.719Z,13.45
2018-01-19T12:34:23.825Z,13.5
2018-01-19T12:35:33.916Z,13.5
2018-01-19T12:36:44.005Z,13.51
2018-01-19T12:37:54.116Z,13.51
2018-01-19T12:39:04.172Z,13.58
2018-01-19T12:40:14.362Z,13.54
2018-01-19T12:41:24.498Z,13.62
2018-01-19T12:42:34.635Z,13.62
2018-01-19T12:43:44.756Z,13.63
2018-01-19T12:44:54.969Z,14.3
2018-01-19T12:46:05.132Z,15.6
2018-01-19T12:47:15.010Z,17.02
2018-01-19T12:48:25.090Z,18.17
2018-01-19T12:49:35.385Z,18.91
2018-01-19T12:50:45.335Z,19.9
2018-01-19T12:51:55.456Z,20.72
2018-01-19T12:53:05.846Z,20
2018-01-19T12:54:16.004Z,18.49
2018-01-19T12:55:25.871Z,17.2
2018-01-19T12:56:36.042Z,16.42
2018-01-19T12:57:46.129Z,16.08
2018-01-19T12:58:55.665Z,17.09
2018-01-19T13:00:05.478Z,18.47
2018-01-19T13:01:16.261Z,19.32
2018-01-19T13:02:26.077Z,20.01
2018-01-19T13:03:35.643Z,20.37
2018-01-19T13:04:45.753Z,20.34
2018-01-19T13:05:55.914Z,19.61
2018-01-19T13:07:06.809Z,18.32
2018-01-19T13:08:17.014Z,17.4
2018-01-19T13:09:27.172Z,16.59
2018-01-19T13:10:37.277Z,16.26
2018-01-19T13:11:47.441Z,15.95
2018-01-19T13:12:57.597Z,15.78
2018-01-19T13:14:07.718Z,15.68
2018-01-19T13:15:17.799Z,15.65
2018-01-19T13:16:27.621Z,15.73
2018-01-19T13:17:37.181Z,15.8
2018-01-19T13:18:47.311Z,15.75
2018-01-19T13:19:57.388Z,15.73
2018-01-19T13:21:07.468Z,15.58
2018-01-19T13:22:17.037Z,15.52
2018-01-19T13:23:26.840Z,15.45
2018-01-19T13:24:37.753Z,15.16
2018-01-19T13:25:47.800Z,14.9
2018-01-19T13:26:57.858Z,14.7
2018-01-19T13:28:07.678Z,14.69
2018-01-19T13:29:17.746Z,14.52
2018-01-19T13:30:29.315Z,14.48
2018-01-19T13:31:39.383Z,14.49
2018-01-19T13:32:49.454Z,14.46
2018-01-19T13:33:59.258Z,14.42
2018-01-19T13:35:09.340Z,14.2
2018-01-19T13:36:19.418Z,14.11
2018-01-19T13:37:29.202Z,13.86
2018-01-19T13:38:39.018Z,13.75
2018-01-19T13:39:50.043Z,13.75
2018-01-19T13:41:00.125Z,13.66
2018-01-19T13:42:10.259Z,13.35
2018-01-19T13:43:20.324Z,12.88
2018-01-19T13:44:30.433Z,12.61
2018-01-19T13:45:40.490Z,12.2
2018-01-19T13:46:50.594Z,11.94
2018-01-19T13:48:00.720Z,11.79
2018-01-19T13:49:10.536Z,11.45
2018-01-19T13:50:20.618Z,11.3
2018-01-19T13:51:30.679Z,11.02
2018-01-19T13:52:40.800Z,10.79
2018-01-19T13:53:50.926Z,10.63
2018-01-19T13:55:00.997Z,10.47
2018-01-19T13:56:11.088Z,10.23
2018-01-19T13:57:21.155Z,10.18
2018-01-19T13:58:31.025Z,9.96
2018-01-19T13:59:41.152Z,9.88
2018-01-19T14:00:50.704Z,9.7
2018-01-19T14:02:00.503Z,9.6
2018-01-19T14:03:10.583Z,9.52
2018-01-19T14:04:20.372Z,9.41
2018-01-19T14:05:30.025Z,9.34
2018-01-19T14:06:40.160Z,9.3
2018-01-19T14:07:49.980Z,9.27
2018-01-19T14:09:00.050Z,9.29
2018-01-19T14:10:09.841Z,9.2
2018-01-19T14:11:19.711Z,9.5
2018-01-19T14:12:29.870Z,9.32
2018-01-19T14:13:39.951Z,9.29
2018-01-19T14:14:50.016Z,9.26
2018-01-19T14:15:59.817Z,9.11
2018-01-19T14:17:09.904Z,9.14
2018-01-19T14:18:19.696Z,9.17
2018-01-19T14:19:29.514Z,9.24
2018-01-19T14:20:39.576Z,9.39
2018-01-19T14:21:49.375Z,9.42
2018-01-19T14:22:59.491Z,9.52
2018-01-19T14:24:09.300Z,9.55
2018-01-19T14:25:19.378Z,9.47
2018-01-19T14:26:29.190Z,9.53
2018-01-19T14:27:39.355Z,9.56
2018-01-19T14:28:49.455Z,9.62
2018-01-19T14:29:59.548Z,9.56
2018-01-19T14:31:09.630Z,9.59
2018-01-19T14:32:19.716Z,9.47
2018-01-19T14:33:29.800Z,9.5
2018-01-19T14:34:39.870Z,9.44
2018-01-19T14:35:49.982Z,9.35
2018-01-19T14:36:59.797Z,9.45
2018-01-19T14:38:09.603Z,9.3
2018-01-19T14:39:19.163Z,9.35
2018-01-19T14:40:29.234Z,9.34
2018-01-19T14:41:39.280Z,9.32
2018-01-19T14:42:49.331Z,9.17
2018-01-19T14:43:59.412Z,9.21
2018-01-19T14:45:08.951Z,9.21
2018-01-19T14:46:18.869Z,9.11
2018-01-19T14:47:28.735Z,9.16
2018-01-19T14:48:38.787Z,8.95
2018-01-19T14:49:49.089Z,8.79
2018-01-19T14:50:58.899Z,8.8
2018-01-19T14:52:08.758Z,8.67
2018-01-19T14:53:19.062Z,8.71
2018-01-19T14:54:29.112Z,8.77
2018-01-19T14:55:38.930Z,8.68
2018-01-19T14:56:49.082Z,8.62
2018-01-19T14:57:59.285Z,8.62
2018-01-19T14:59:09.435Z,8.49
2018-01-19T15:00:19.500Z,8.62
2018-01-19T15:01:29.307Z,8.43
2018-01-19T15:02:39.096Z,8.46
2018-01-19T15:03:49.455Z,8.43
2018-01-19T15:04:59.267Z,8.35
2018-01-19T15:06:09.326Z,8.39
2018-01-19T15:07:19.383Z,8.24
2018-01-19T15:08:29.438Z,8.29
2018-01-19T15:09:39.291Z,8.21
2018-01-19T15:10:49.350Z,8.34
2018-01-19T15:11:59.172Z,8.25
2018-01-19T15:13:09.255Z,8.14
2018-01-19T15:14:19.312Z,8.16
2018-01-19T15:15:29.405Z,8.17
2018-01-19T15:16:39.479Z,8.22
2018-01-19T15:17:49.545Z,8.16
2018-01-19T15:18:59.357Z,8.21
2018-01-19T15:20:09.439Z,8.26
2018-01-19T15:21:19.238Z,8.13
2018-01-19T15:22:29.100Z,8.11
2018-01-19T15:23:39.186Z,8.11
2018-01-19T15:24:49.238Z,8.04
2018-01-19T15:25:59.306Z,8.07
2018-01-19T15:27:09.168Z,7.99
2018-01-19T15:28:19.241Z,8.06
2018-01-19T15:29:29.299Z,8.01
2018-01-19T15:30:39.375Z,8.04
2018-01-19T15:31:49.444Z,8.06
2018-01-19T15:32:59.298Z,8.04
2018-01-19T15:34:09.093Z,7.92
2018-01-19T15:35:19.168Z,8.01
2018-01-19T15:36:29.225Z,7.93
2018-01-19T15:37:39.301Z,7.92
2018-01-19T15:38:49.410Z,7.91
2018-01-19T15:39:59.474Z,7.91
2018-01-19T15:41:09.578Z,7.93
2018-01-19T15:42:19.647Z,7.86
2018-01-19T15:43:29.726Z,7.83
2018-01-19T15:44:39.528Z,7.88
2018-01-19T15:45:49.604Z,7.78
2018-01-19T15:46:59.656Z,7.82
2018-01-19T15:48:09.457Z,7.77
2018-01-19T15:49:19.532Z,7.7
2018-01-19T15:50:29.640Z,7.68
2018-01-19T15:51:39.767Z,7.73
2018-01-19T15:52:49.612Z,7.64
2018-01-19T15:53:59.722Z,7.63
2018-01-19T15:55:09.532Z,7.58
2018-01-19T15:56:19.372Z,7.52
2018-01-19T15:57:28.915Z,7.52